sensor_id;sensor_type;location;lat;lon;timestamp;pressure;altitude;pressure_sealevel;temperature;humidity
30897;BME280;64229;52.246;21.054;2023-01-25T00:00:25;102669.09;;;2.19;85.37
30897;BME280;64229;52.246;21.054;2023-01-25T00:02:50;102673.38;;;2.20;83.75
30897;BME280;64229;52.246;21.054;2023-01-25T00:05:15;102682.34;;;2.09;84.09
30897;BME280;64229;52.246;21.054;2023-01-25T00:07:41;102675.81;;;2.13;83.50
30897;BME280;64229;52.246;21.054;2023-01-25T00:10:07;102679.28;;;2.14;82.20
30897;BME280;64229;52.246;21.054;2023-01-25T00:12:33;102678.28;;;1.97;82.54
30897;BME280;64229;52.246;21.054;2023-01-25T00:14:58;102685.41;;;1.87;83.44
30897;BME280;64229;52.246;21.054;2023-01-25T00:17:25;102689.13;;;1.94;82.25
30897;BME280;64229;52.246;21.054;2023-01-25T00:19:51;102684.22;;;1.99;81.54
30897;BME280;64229;52.246;21.054;2023-01-25T00:22:16;102677.97;;;2.00;81.84
30897;BME280;64229;52.246;21.054;2023-01-25T00:24:41;102662.72;;;2.03;81.20
30897;BME280;64229;52.246;21.054;2023-01-25T00:27:07;102667.28;;;2.01;82.03
30897;BME280;64229;52.246;21.054;2023-01-25T00:29:32;102659.38;;;2.01;81.41
30897;BME280;64229;52.246;21.054;2023-01-25T00:34:46;102661.91;;;2.03;81.29
30897;BME280;64229;52.246;21.054;2023-01-25T00:37:17;102649.38;;;1.87;81.59
30897;BME280;64229;52.246;21.054;2023-01-25T00:39:44;102658.25;;;1.86;82.63
30897;BME280;64229;52.246;21.054;2023-01-25T00:42:11;102662.94;;;1.92;82.02
30897;BME280;64229;52.246;21.054;2023-01-25T00:44:37;102664.75;;;1.92;81.52
30897;BME280;64229;52.246;21.054;2023-01-25T00:47:04;102659.53;;;1.82;81.28
30897;BME280;64229;52.246;21.054;2023-01-25T00:49:29;102651.50;;;1.84;81.15
30897;BME280;64229;52.246;21.054;2023-01-25T00:51:56;102648.47;;;1.79;81.70
30897;BME280;64229;52.246;21.054;2023-01-25T00:54:22;102649.28;;;1.79;82.44
30897;BME280;64229;52.246;21.054;2023-01-25T00:56:49;102634.63;;;1.77;82.25
30897;BME280;64229;52.246;21.054;2023-01-25T00:59:16;102639.75;;;1.78;81.29
30897;BME280;64229;52.246;21.054;2023-01-25T01:01:42;102636.28;;;1.78;81.47
30897;BME280;64229;52.246;21.054;2023-01-25T01:04:07;102631.31;;;1.74;82.39
30897;BME280;64229;52.246;21.054;2023-01-25T01:06:37;102635.38;;;1.69;82.43
30897;BME280;64229;52.246;21.054;2023-01-25T01:09:04;102642.53;;;1.77;81.91
30897;BME280;64229;52.246;21.054;2023-01-25T01:11:30;102646.28;;;1.74;82.61
30897;BME280;64229;52.246;21.054;2023-01-25T01:13:57;102642.38;;;1.78;82.65
30897;BME280;64229;52.246;21.054;2023-01-25T01:16:23;102621.00;;;1.63;82.80
30897;BME280;64229;52.246;21.054;2023-01-25T01:18:49;102639.47;;;1.81;81.78
30897;BME280;64229;52.246;21.054;2023-01-25T01:21:15;102637.25;;;1.77;82.85
30897;BME280;64229;52.246;21.054;2023-01-25T01:23:41;102630.09;;;1.69;82.04
30897;BME280;64229;52.246;21.054;2023-01-25T01:26:09;102636.19;;;1.69;82.12
30897;BME280;64229;52.246;21.054;2023-01-25T01:28:35;102641.75;;;1.66;82.31
30897;BME280;64229;52.246;21.054;2023-01-25T01:31:06;102635.09;;;1.72;80.74
30897;BME280;64229;52.246;21.054;2023-01-25T01:33:32;102637.41;;;1.75;80.39
30897;BME280;64229;52.246;21.054;2023-01-25T01:35:58;102641.75;;;1.66;80.72
30897;BME280;64229;52.246;21.054;2023-01-25T08:16:52;102403.72;;;-0.30;84.73
30897;BME280;64229;52.246;21.054;2023-01-25T08:19:17;102415.91;;;-0.39;83.89
30897;BME280;64229;52.246;21.054;2023-01-25T08:21:44;102409.97;;;-0.41;84.55
30897;BME280;64229;52.246;21.054;2023-01-25T08:24:10;102404.25;;;-0.26;82.91
30897;BME280;64229;52.246;21.054;2023-01-25T08:26:36;102405.78;;;-0.34;83.64
30897;BME280;64229;52.246;21.054;2023-01-25T08:29:02;102403.75;;;-0.40;83.55
30897;BME280;64229;52.246;21.054;2023-01-25T08:31:30;102386.75;;;-0.45;83.75
30897;BME280;64229;52.246;21.054;2023-01-25T08:33:57;102389.00;;;-0.50;83.80
30897;BME280;64229;52.246;21.054;2023-01-25T08:36:23;102394.47;;;-0.44;83.91
30897;BME280;64229;52.246;21.054;2023-01-25T08:38:55;102390.63;;;-0.40;83.48
30897;BME280;64229;52.246;21.054;2023-01-25T08:41:22;102381.91;;;-0.31;83.33
30897;BME280;64229;52.246;21.054;2023-01-25T08:43:47;102381.91;;;-0.31;83.17
30897;BME280;64229;52.246;21.054;2023-01-25T08:46:15;102380.25;;;-0.32;83.46
30897;BME280;64229;52.246;21.054;2023-01-25T08:48:41;102382.75;;;-0.40;83.09
30897;BME280;64229;52.246;21.054;2023-01-25T08:51:07;102384.81;;;-0.43;83.91
30897;BME280;64229;52.246;21.054;2023-01-25T08:53:33;102376.38;;;-0.37;84.59
30897;BME280;64229;52.246;21.054;2023-01-25T08:56:06;102372.78;;;-0.26;83.68
30897;BME280;64229;52.246;21.054;2023-01-25T08:58:32;102380.03;;;-0.11;83.25
30897;BME280;64229;52.246;21.054;2023-01-25T09:01:02;102375.63;;;-0.10;82.70
30897;BME280;64229;52.246;21.054;2023-01-25T09:03:28;102377.34;;;-0.28;82.81
30897;BME280;64229;52.246;21.054;2023-01-25T09:05:53;102365.91;;;-0.37;82.41
30897;BME280;64229;52.246;21.054;2023-01-25T09:08:19;102371.53;;;-0.32;82.43
30897;BME280;64229;52.246;21.054;2023-01-25T09:10:44;102376.91;;;-0.24;83.10
30897;BME280;64229;52.246;21.054;2023-01-25T09:13:10;102375.78;;;-0.21;82.49
30897;BME280;64229;52.246;21.054;2023-01-25T09:15:37;102369.72;;;-0.22;82.23
30897;BME280;64229;52.246;21.054;2023-01-25T09:18:02;102368.97;;;-0.05;81.96
30897;BME280;64229;52.246;21.054;2023-01-25T09:20:28;102359.56;;;0.03;81.89
30897;BME280;64229;52.246;21.054;2023-01-25T09:22:54;102361.31;;;0.12;80.53
30897;BME280;64229;52.246;21.054;2023-01-25T09:25:19;102357.91;;;0.02;80.65
30897;BME280;64229;52.246;21.054;2023-01-25T09:27:48;102361.19;;;0.04;80.29
30897;BME280;64229;52.246;21.054;2023-01-25T09:30:14;102358.97;;;0.09;81.23
30897;BME280;64229;52.246;21.054;2023-01-25T09:32:40;102355.59;;;0.16;79.86
30897;BME280;64229;52.246;21.054;2023-01-25T09:35:06;102356.78;;;0.04;79.66
30897;BME280;64229;52.246;21.054;2023-01-25T09:37:31;102349.75;;;-0.05;80.02
30897;BME280;64229;52.246;21.054;2023-01-25T09:39:57;102340.66;;;-0.11;80.96
30897;BME280;64229;52.246;21.054;2023-01-25T09:42:44;102329.03;;;-0.36;81.59
30897;BME280;64229;52.246;21.054;2023-01-25T09:45:30;102331.00;;;-0.10;81.34
30897;BME280;64229;52.246;21.054;2023-01-25T09:48:16;102319.50;;;0.01;80.51
30897;BME280;64229;52.246;21.054;2023-01-25T09:51:03;102316.72;;;0.02;79.85
30897;BME280;64229;52.246;21.054;2023-01-25T09:53:36;102311.69;;;0.09;80.55
30897;BME280;64229;52.246;21.054;2023-01-25T09:58:37;102301.28;;;0.17;80.15
30897;BME280;64229;52.246;21.054;2023-01-25T10:01:14;102306.63;;;0.25;80.20
30897;BME280;64229;52.246;21.054;2023-01-25T10:04:04;102317.25;;;0.33;80.03
30897;BME280;64229;52.246;21.054;2023-01-25T10:06:37;102311.06;;;0.24;79.51
30897;BME280;64229;52.246;21.054;2023-01-25T10:11:37;102306.94;;;0.22;79.66
30897;BME280;64229;52.246;21.054;2023-01-25T10:14:10;102298.88;;;0.06;80.16
30897;BME280;64229;52.246;21.054;2023-01-25T10:30:35;102282.66;;;0.10;79.69
30897;BME280;64229;52.246;21.054;2023-01-25T10:33:17;102270.38;;;0.11;80.50
30897;BME280;64229;52.246;21.054;2023-01-25T10:35:45;102270.56;;;-0.01;80.64
30897;BME280;64229;52.246;21.054;2023-01-25T10:38:23;102262.34;;;0.12;81.03
30897;BME280;64229;52.246;21.054;2023-01-25T10:41:03;102247.91;;;-0.02;80.50
30897;BME280;64229;52.246;21.054;2023-01-25T10:43:31;102255.41;;;-0.34;82.69
30897;BME280;64229;52.246;21.054;2023-01-25T10:45:56;102244.03;;;-0.25;81.39
30897;BME280;64229;52.246;21.054;2023-01-25T10:48:26;102236.94;;;-0.15;82.22
30897;BME280;64229;52.246;21.054;2023-01-25T10:50:54;102242.97;;;-0.05;82.02
30897;BME280;64229;52.246;21.054;2023-01-25T10:53:35;102248.66;;;-0.09;81.81
30897;BME280;64229;52.246;21.054;2023-01-25T11:01:09;102243.13;;;-0.06;82.07
30897;BME280;64229;52.246;21.054;2023-01-25T11:03:41;102240.59;;;0.02;82.21
30897;BME280;64229;52.246;21.054;2023-01-25T11:06:09;102236.59;;;-0.02;81.39
30897;BME280;64229;52.246;21.054;2023-01-25T11:08:39;102227.31;;;0.04;81.16
30897;BME280;64229;52.246;21.054;2023-01-25T11:11:36;102225.44;;;0.14;81.18
30897;BME280;64229;52.246;21.054;2023-01-25T11:14:26;102215.06;;;-0.06;81.55
30897;BME280;64229;52.246;21.054;2023-01-25T11:16:53;102204.09;;;-0.19;82.31
30897;BME280;64229;52.246;21.054;2023-01-25T11:19:23;102205.22;;;-0.04;82.16
30897;BME280;64229;52.246;21.054;2023-01-25T11:21:52;102200.06;;;0.05;82.38
30897;BME280;64229;52.246;21.054;2023-01-25T11:24:17;102199.91;;;0.06;82.33
30897;BME280;64229;52.246;21.054;2023-01-25T11:26:43;102196.78;;;0.03;82.56
30897;BME280;64229;52.246;21.054;2023-01-25T11:31:43;102182.31;;;0.16;82.00
30897;BME280;64229;52.246;21.054;2023-01-25T11:34:19;102193.47;;;0.18;82.27
30897;BME280;64229;52.246;21.054;2023-01-25T11:40:04;102183.78;;;-0.17;83.37
30897;BME280;64229;52.246;21.054;2023-01-25T11:56:48;102167.00;;;0.12;82.69
30897;BME280;64229;52.246;21.054;2023-01-25T12:05:21;102146.28;;;0.26;82.00
30897;BME280;64229;52.246;21.054;2023-01-25T12:10:59;102146.28;;;0.26;81.44
30897;BME280;64229;52.246;21.054;2023-01-25T12:33:37;102114.66;;;-0.08;82.39
30897;BME280;64229;52.246;21.054;2023-01-25T12:36:12;102116.22;;;0.03;83.34
30897;BME280;64229;52.246;21.054;2023-01-25T12:39:13;102112.53;;;0.14;82.63
30897;BME280;64229;52.246;21.054;2023-01-25T12:41:57;102110.72;;;0.14;82.54
30897;BME280;64229;52.246;21.054;2023-01-25T12:44:35;102109.59;;;0.17;82.50
30897;BME280;64229;52.246;21.054;2023-01-25T12:47:45;102118.88;;;0.29;82.12
30897;BME280;64229;52.246;21.054;2023-01-25T12:50:28;102111.81;;;0.29;82.07
30897;BME280;64229;52.246;21.054;2023-01-25T12:53:04;102107.03;;;0.25;81.97
30897;BME280;64229;52.246;21.054;2023-01-25T12:55:32;102111.09;;;0.19;81.58
30897;BME280;64229;52.246;21.054;2023-01-25T12:58:18;102115.75;;;0.25;82.90
30897;BME280;64229;52.246;21.054;2023-01-25T13:11:40;102090.16;;;0.27;82.56
30897;BME280;64229;52.246;21.054;2023-01-25T13:16:51;102085.28;;;0.33;82.31
30897;BME280;64229;52.246;21.054;2023-01-25T13:19:22;102071.31;;;0.32;82.42
30897;BME280;64229;52.246;21.054;2023-01-25T13:22:03;102068.78;;;0.22;82.82
30897;BME280;64229;52.246;21.054;2023-01-25T13:24:31;102064.66;;;0.20;82.62
30897;BME280;64229;52.246;21.054;2023-01-25T13:27:00;102052.06;;;0.06;82.49
30897;BME280;64229;52.246;21.054;2023-01-25T13:34:59;102056.69;;;0.55;81.28
30897;BME280;64229;52.246;21.054;2023-01-25T13:37:30;102051.31;;;0.39;81.05
30897;BME280;64229;52.246;21.054;2023-01-25T13:42:30;102057.56;;;0.38;82.14
30897;BME280;64229;52.246;21.054;2023-01-25T13:45:03;102054.63;;;0.41;81.14
30897;BME280;64229;52.246;21.054;2023-01-25T13:47:36;102045.81;;;0.24;82.28
30897;BME280;64229;52.246;21.054;2023-01-25T13:50:22;102039.22;;;0.20;82.63
30897;BME280;64229;52.246;21.054;2023-01-25T13:52:58;102041.91;;;0.28;83.04
30897;BME280;64229;52.246;21.054;2023-01-25T13:55:24;102032.06;;;0.31;82.41
30897;BME280;64229;52.246;21.054;2023-01-25T13:57:50;102024.03;;;0.32;82.63
30897;BME280;64229;52.246;21.054;2023-01-25T14:00:16;102021.81;;;0.45;82.58
30897;BME280;64229;52.246;21.054;2023-01-25T14:02:44;102016.50;;;0.37;82.29
30897;BME280;64229;52.246;21.054;2023-01-25T14:05:18;102012.41;;;0.35;81.83
30897;BME280;64229;52.246;21.054;2023-01-25T14:07:45;102015.75;;;0.45;82.70
30897;BME280;64229;52.246;21.054;2023-01-25T14:10:18;102018.38;;;0.53;82.90
30897;BME280;64229;52.246;21.054;2023-01-25T14:12:48;102010.50;;;0.53;82.30
30897;BME280;64229;52.246;21.054;2023-01-25T14:15:21;102012.03;;;0.29;82.75
30897;BME280;64229;52.246;21.054;2023-01-25T14:18:10;102010.78;;;0.16;83.20
30897;BME280;64229;52.246;21.054;2023-01-25T14:20:37;102003.81;;;0.24;83.63
30897;BME280;64229;52.246;21.054;2023-01-25T14:23:03;102006.31;;;0.34;84.62
30897;BME280;64229;52.246;21.054;2023-01-25T14:25:31;102003.97;;;0.31;83.29
30897;BME280;64229;52.246;21.054;2023-01-25T14:28:01;102004.16;;;0.29;83.98
30897;BME280;64229;52.246;21.054;2023-01-25T14:30:34;101992.38;;;0.42;83.46
30897;BME280;64229;52.246;21.054;2023-01-25T14:33:17;101986.84;;;0.45;83.13
30897;BME280;64229;52.246;21.054;2023-01-25T14:35:45;101991.66;;;0.23;84.10
30897;BME280;64229;52.246;21.054;2023-01-25T14:40:47;101990.81;;;-0.03;86.08
30897;BME280;64229;52.246;21.054;2023-01-25T14:43:14;101977.47;;;0.16;85.09
30897;BME280;64229;52.246;21.054;2023-01-25T14:45:41;101976.41;;;0.27;84.74
30897;BME280;64229;52.246;21.054;2023-01-25T14:48:36;101964.84;;;0.12;84.77
30897;BME280;64229;52.246;21.054;2023-01-25T14:51:05;101971.94;;;-0.07;86.41
30897;BME280;64229;52.246;21.054;2023-01-25T14:53:38;101964.56;;;-0.03;85.73
30897;BME280;64229;52.246;21.054;2023-01-25T14:56:16;101947.28;;;0.12;85.55
30897;BME280;64229;52.246;21.054;2023-01-25T14:58:42;101955.72;;;0.24;84.35
30897;BME280;64229;52.246;21.054;2023-01-25T15:01:15;101952.50;;;0.38;84.51
30897;BME280;64229;52.246;21.054;2023-01-25T15:03:48;101957.97;;;0.19;84.44
30897;BME280;64229;52.246;21.054;2023-01-25T15:06:13;101954.56;;;0.26;84.45
30897;BME280;64229;52.246;21.054;2023-01-25T15:08:39;101952.88;;;0.17;84.67
30897;BME280;64229;52.246;21.054;2023-01-25T15:11:28;101941.81;;;0.06;85.51
30897;BME280;64229;52.246;21.054;2023-01-25T15:14:27;101928.06;;;0.12;85.49
30897;BME280;64229;52.246;21.054;2023-01-25T15:16:54;101933.06;;;0.31;84.86
30897;BME280;64229;52.246;21.054;2023-01-25T15:19:26;101930.44;;;0.23;84.98
30897;BME280;64229;52.246;21.054;2023-01-25T15:21:57;101921.25;;;-0.07;86.32
30897;BME280;64229;52.246;21.054;2023-01-25T15:24:23;101925.91;;;-0.19;87.46
30897;BME280;64229;52.246;21.054;2023-01-25T15:26:51;101919.44;;;-0.07;86.10
30897;BME280;64229;52.246;21.054;2023-01-25T15:29:21;101911.63;;;0.02;86.45
30897;BME280;64229;52.246;21.054;2023-01-25T15:31:50;101917.25;;;0.15;86.14
30897;BME280;64229;52.246;21.054;2023-01-25T15:34:19;101919.50;;;0.10;85.85
30897;BME280;64229;52.246;21.054;2023-01-25T15:36:45;101910.09;;;-0.01;86.96
30897;BME280;64229;52.246;21.054;2023-01-25T15:39:12;101895.59;;;-0.13;86.94
30897;BME280;64229;52.246;21.054;2023-01-25T15:41:39;101911.72;;;-0.08;87.21
30897;BME280;64229;52.246;21.054;2023-01-25T15:44:04;101913.78;;;-0.20;87.48
30897;BME280;64229;52.246;21.054;2023-01-25T15:46:31;101913.09;;;-0.22;87.02
30897;BME280;64229;52.246;21.054;2023-01-25T15:48:58;101896.84;;;-0.25;87.54
30897;BME280;64229;52.246;21.054;2023-01-25T15:51:24;101900.22;;;-0.33;88.26
30897;BME280;64229;52.246;21.054;2023-01-25T15:53:50;101903.72;;;-0.24;87.33
30897;BME280;64229;52.246;21.054;2023-01-25T15:56:18;101905.75;;;-0.18;87.57
30897;BME280;64229;52.246;21.054;2023-01-25T15:58:48;101903.31;;;-0.12;87.25
30897;BME280;64229;52.246;21.054;2023-01-25T16:01:15;101886.19;;;-0.24;86.65
30897;BME280;64229;52.246;21.054;2023-01-25T16:03:41;101898.59;;;-0.08;87.06
30897;BME280;64229;52.246;21.054;2023-01-25T16:09:20;101883.03;;;-0.02;87.17
30897;BME280;64229;52.246;21.054;2023-01-25T16:11:48;101888.81;;;0.02;86.82
30897;BME280;64229;52.246;21.054;2023-01-25T16:14:15;101885.19;;;0.03;86.85
30897;BME280;64229;52.246;21.054;2023-01-25T16:16:47;101889.47;;;0.04;86.49
30897;BME280;64229;52.246;21.054;2023-01-25T16:19:15;101883.84;;;-0.01;85.82
30897;BME280;64229;52.246;21.054;2023-01-25T16:21:42;101871.16;;;-0.14;86.20
30897;BME280;64229;52.246;21.054;2023-01-25T16:24:08;101879.41;;;-0.09;87.22
30897;BME280;64229;52.246;21.054;2023-01-25T16:26:35;101871.25;;;0.03;86.94
30897;BME280;64229;52.246;21.054;2023-01-25T16:29:01;101876.47;;;-0.06;86.63
30897;BME280;64229;52.246;21.054;2023-01-25T16:31:27;101871.13;;;0.12;86.39
30897;BME280;64229;52.246;21.054;2023-01-25T16:33:52;101865.47;;;-0.01;87.36
30897;BME280;64229;52.246;21.054;2023-01-25T16:36:22;101870.19;;;-0.13;87.33
30897;BME280;64229;52.246;21.054;2023-01-25T16:38:48;101857.97;;;-0.22;87.65
30897;BME280;64229;52.246;21.054;2023-01-25T16:41:14;101845.22;;;-0.17;87.54
30897;BME280;64229;52.246;21.054;2023-01-25T16:43:43;101853.75;;;-0.15;86.91
30897;BME280;64229;52.246;21.054;2023-01-25T16:46:20;101856.75;;;-0.10;86.85
30897;BME280;64229;52.246;21.054;2023-01-25T16:48:47;101851.50;;;-0.10;86.54
30897;BME280;64229;52.246;21.054;2023-01-25T16:51:15;101843.03;;;-0.30;87.95
30897;BME280;64229;52.246;21.054;2023-01-25T16:53:41;101854.69;;;-0.24;87.58
30897;BME280;64229;52.246;21.054;2023-01-25T16:56:13;101834.41;;;-0.14;87.40
30897;BME280;64229;52.246;21.054;2023-01-25T16:58:39;101845.00;;;0.03;87.53
30897;BME280;64229;52.246;21.054;2023-01-25T17:01:11;101828.28;;;0.04;86.54
30897;BME280;64229;52.246;21.054;2023-01-25T17:03:38;101831.88;;;0.03;86.82
30897;BME280;64229;52.246;21.054;2023-01-25T17:06:04;101819.31;;;-0.20;86.78
30897;BME280;64229;52.246;21.054;2023-01-25T17:08:30;101828.66;;;-0.17;87.22
30897;BME280;64229;52.246;21.054;2023-01-25T17:10:55;101829.75;;;-0.28;88.15
30897;BME280;64229;52.246;21.054;2023-01-25T17:13:24;101827.25;;;-0.04;87.38
30897;BME280;64229;52.246;21.054;2023-01-25T17:15:50;101827.44;;;0.03;87.11
30897;BME280;64229;52.246;21.054;2023-01-25T17:18:15;101825.66;;;0.04;87.00
30897;BME280;64229;52.246;21.054;2023-01-25T17:20:41;101818.59;;;0.04;86.80
30897;BME280;64229;52.246;21.054;2023-01-25T17:23:07;101810.22;;;0.09;86.67
30897;BME280;64229;52.246;21.054;2023-01-25T17:25:37;101809.94;;;0.12;86.54
30897;BME280;64229;52.246;21.054;2023-01-25T17:28:02;101814.50;;;0.10;86.33
30897;BME280;64229;52.246;21.054;2023-01-25T17:30:28;101803.47;;;-0.02;86.64
30897;BME280;64229;52.246;21.054;2023-01-25T17:32:53;101807.06;;;-0.03;86.81
30897;BME280;64229;52.246;21.054;2023-01-25T17:35:19;101806.31;;;-0.21;87.13
30897;BME280;64229;52.246;21.054;2023-01-25T17:37:44;101797.34;;;-0.19;87.63
30897;BME280;64229;52.246;21.054;2023-01-25T17:40:10;101803.84;;;-0.23;87.67
30897;BME280;64229;52.246;21.054;2023-01-25T17:42:35;101811.50;;;-0.04;87.55
30897;BME280;64229;52.246;21.054;2023-01-25T17:45:01;101793.34;;;-0.31;88.48
30897;BME280;64229;52.246;21.054;2023-01-25T17:47:26;101795.97;;;-0.31;88.58
30897;BME280;64229;52.246;21.054;2023-01-25T17:49:52;101795.38;;;-0.17;88.28
30897;BME280;64229;52.246;21.054;2023-01-25T17:52:17;101785.59;;;0.02;87.49
30897;BME280;64229;52.246;21.054;2023-01-25T17:54:43;101775.28;;;0.00;86.91
30897;BME280;64229;52.246;21.054;2023-01-25T17:57:08;101762.72;;;-0.14;87.12
30897;BME280;64229;52.246;21.054;2023-01-25T17:59:35;101760.34;;;0.01;87.53
30897;BME280;64229;52.246;21.054;2023-01-25T18:02:00;101766.91;;;0.05;87.14
30897;BME280;64229;52.246;21.054;2023-01-25T18:04:26;101773.84;;;0.14;86.84
30897;BME280;64229;52.246;21.054;2023-01-25T18:06:51;101770.25;;;0.31;86.29
30897;BME280;64229;52.246;21.054;2023-01-25T18:09:17;101771.22;;;0.22;86.71
30897;BME280;64229;52.246;21.054;2023-01-25T18:11:43;101770.25;;;0.23;87.05
30897;BME280;64229;52.246;21.054;2023-01-25T18:14:12;101769.44;;;0.39;86.60
30897;BME280;64229;52.246;21.054;2023-01-25T18:16:41;101766.13;;;0.28;86.53
30897;BME280;64229;52.246;21.054;2023-01-25T18:19:07;101767.63;;;0.31;86.79
30897;BME280;64229;52.246;21.054;2023-01-25T18:21:34;101761.69;;;0.21;87.32
30897;BME280;64229;52.246;21.054;2023-01-25T18:24:03;101763.00;;;0.17;87.31
30897;BME280;64229;52.246;21.054;2023-01-25T18:26:32;101761.03;;;0.19;87.28
30897;BME280;64229;52.246;21.054;2023-01-25T18:29:01;101768.97;;;0.43;86.54
30897;BME280;64229;52.246;21.054;2023-01-25T18:31:28;101771.09;;;0.40;86.05
30897;BME280;64229;52.246;21.054;2023-01-25T18:33:53;101774.88;;;0.45;86.29
30897;BME280;64229;52.246;21.054;2023-01-25T18:36:19;101772.28;;;0.53;86.05
30897;BME280;64229;52.246;21.054;2023-01-25T18:38:44;101777.69;;;0.60;85.25
30897;BME280;64229;52.246;21.054;2023-01-25T18:41:10;101773.59;;;0.57;85.62
30897;BME280;64229;52.246;21.054;2023-01-25T18:43:36;101765.38;;;0.69;85.32
30897;BME280;64229;52.246;21.054;2023-01-25T18:46:02;101760.28;;;0.59;85.55
30897;BME280;64229;52.246;21.054;2023-01-25T18:48:28;101757.47;;;0.61;85.79
30897;BME280;64229;52.246;21.054;2023-01-25T18:50:58;101768.16;;;0.59;85.50
30897;BME280;64229;52.246;21.054;2023-01-25T18:53:24;101749.41;;;0.38;85.12
30897;BME280;64229;52.246;21.054;2023-01-25T18:58:32;101766.91;;;0.05;87.67
30897;BME280;64229;52.246;21.054;2023-01-25T19:01:11;101765.41;;;-0.06;88.55
30897;BME280;64229;52.246;21.054;2023-01-25T19:03:38;101759.56;;;0.16;87.87
30897;BME280;64229;52.246;21.054;2023-01-25T19:06:04;101761.38;;;0.24;87.58
30897;BME280;64229;52.246;21.054;2023-01-25T19:08:30;101758.91;;;0.31;87.45
30897;BME280;64229;52.246;21.054;2023-01-25T19:11:15;101751.25;;;0.45;85.96
30897;BME280;64229;52.246;21.054;2023-01-25T19:13:42;101745.00;;;0.54;86.20
30897;BME280;64229;52.246;21.054;2023-01-25T19:16:14;101749.59;;;0.44;86.06
30897;BME280;64229;52.246;21.054;2023-01-25T19:18:42;101734.13;;;0.25;86.20
30897;BME280;64229;52.246;21.054;2023-01-25T19:21:15;101737.56;;;0.17;87.64
30897;BME280;64229;52.246;21.054;2023-01-25T19:23:41;101728.53;;;0.20;87.04
30897;BME280;64229;52.246;21.054;2023-01-25T19:26:10;101723.44;;;0.18;86.52
30897;BME280;64229;52.246;21.054;2023-01-25T19:28:36;101724.22;;;-0.06;86.86
30897;BME280;64229;52.246;21.054;2023-01-25T19:31:23;101720.44;;;-0.03;87.62
30897;BME280;64229;52.246;21.054;2023-01-25T19:33:53;101717.41;;;0.26;86.46
30897;BME280;64229;52.246;21.054;2023-01-25T19:36:19;101712.47;;;0.31;85.02
30897;BME280;64229;52.246;21.054;2023-01-25T19:38:46;101699.50;;;0.29;85.65
30897;BME280;64229;52.246;21.054;2023-01-25T19:41:15;101717.25;;;0.44;85.69
30897;BME280;64229;52.246;21.054;2023-01-25T19:43:40;101720.22;;;0.49;85.95
30897;BME280;64229;52.246;21.054;2023-01-25T19:46:11;101691.00;;;0.44;85.07
30897;BME280;64229;52.246;21.054;2023-01-25T19:48:38;101702.00;;;0.47;85.93
30897;BME280;64229;52.246;21.054;2023-01-25T19:51:13;101705.78;;;0.45;86.21
30897;BME280;64229;52.246;21.054;2023-01-25T19:53:40;101696.25;;;0.44;86.40
30897;BME280;64229;52.246;21.054;2023-01-25T19:56:11;101694.59;;;0.59;84.71
30897;BME280;64229;52.246;21.054;2023-01-25T19:58:37;101689.81;;;0.38;85.17
30897;BME280;64229;52.246;21.054;2023-01-25T20:01:10;101683.91;;;0.28;85.82
30897;BME280;64229;52.246;21.054;2023-01-25T20:03:37;101690.16;;;0.11;87.20
30897;BME280;64229;52.246;21.054;2023-01-25T20:06:03;101675.66;;;-0.10;88.16
30897;BME280;64229;52.246;21.054;2023-01-25T20:08:35;101670.88;;;-0.14;88.58
30897;BME280;64229;52.246;21.054;2023-01-25T20:11:03;101666.44;;;-0.22;88.45
30897;BME280;64229;52.246;21.054;2023-01-25T20:13:29;101661.22;;;-0.14;88.49
30897;BME280;64229;52.246;21.054;2023-01-25T20:15:55;101665.16;;;-0.02;88.23
30897;BME280;64229;52.246;21.054;2023-01-25T20:18:21;101656.84;;;0.11;87.25
30897;BME280;64229;52.246;21.054;2023-01-25T20:21:17;101647.00;;;0.13;87.34
30897;BME280;64229;52.246;21.054;2023-01-25T20:23:45;101654.34;;;0.10;87.46
30897;BME280;64229;52.246;21.054;2023-01-25T20:26:16;101662.03;;;-0.13;88.14
30897;BME280;64229;52.246;21.054;2023-01-25T20:28:44;101646.41;;;-0.39;88.54
30897;BME280;64229;52.246;21.054;2023-01-25T20:33:52;101647.75;;;-0.27;89.58
30897;BME280;64229;52.246;21.054;2023-01-25T20:36:18;101648.56;;;-0.26;89.48
30897;BME280;64229;52.246;21.054;2023-01-25T20:38:44;101652.34;;;-0.29;90.09
30897;BME280;64229;52.246;21.054;2023-01-25T20:41:12;101650.91;;;-0.07;88.65
30897;BME280;64229;52.246;21.054;2023-01-25T20:43:39;101646.47;;;-0.07;87.80
30897;BME280;64229;52.246;21.054;2023-01-25T20:46:09;101637.91;;;-0.25;88.80
30897;BME280;64229;52.246;21.054;2023-01-25T20:48:34;101640.38;;;-0.15;87.96
30897;BME280;64229;52.246;21.054;2023-01-25T20:51:05;101636.44;;;-0.11;88.05
30897;BME280;64229;52.246;21.054;2023-01-25T20:53:34;101636.88;;;-0.32;89.45
30897;BME280;64229;52.246;21.054;2023-01-25T20:55:59;101635.09;;;-0.40;90.57
30897;BME280;64229;52.246;21.054;2023-01-25T20:58:26;101633.59;;;-0.34;89.80
30897;BME280;64229;52.246;21.054;2023-01-25T21:00:52;101633.78;;;-0.36;90.30
30897;BME280;64229;52.246;21.054;2023-01-25T21:03:17;101622.50;;;-0.28;89.97
30897;BME280;64229;52.246;21.054;2023-01-25T21:05:51;101643.03;;;-0.07;88.99
30897;BME280;64229;52.246;21.054;2023-01-25T21:08:17;101642.00;;;-0.22;89.52
30897;BME280;64229;52.246;21.054;2023-01-25T21:10:56;101632.31;;;-0.22;89.90
30897;BME280;64229;52.246;21.054;2023-01-25T21:13:22;101635.94;;;-0.23;90.30
30897;BME280;64229;52.246;21.054;2023-01-25T21:16:02;101624.13;;;-0.11;88.53
30897;BME280;64229;52.246;21.054;2023-01-25T21:18:32;101619.41;;;0.17;87.44
30897;BME280;64229;52.246;21.054;2023-01-25T21:21:16;101618.59;;;0.25;86.94
30897;BME280;64229;52.246;21.054;2023-01-25T21:23:43;101627.63;;;0.06;88.29